Hub


Voltar

 INFORMAÇÕES METEOROLÓGICAS

METAR FOR GCTS


ADDS - METARS form results

(2316 UTC 17 February 2019)
Data provider http://aviationweather.gov/metar/data/
 
METAR text: GCTS 172300Z VRB02KT CAVOK 17/06 Q1023 NOSIG
Conditions at: GCTS (TENERIFE SUR/REI, ES) observed 2300 UTC 17 February 2019
Temperature: 17.0°C (63°F)
Dewpoint: 6.0°C (43°F) [RH = 48%]
Pressure (altimeter): 30.21 inches Hg (1023.0 mb)
Winds: variable direction winds at 2 MPH (2 knots; 1.0 m/s)
Visibility: 6 or more miles (10+ km)
Ceiling: ceiling and visibility are OK
Clouds: unknown
Weather: no significant weather observed at this time

METAR text: GCTS 172230Z 36003KT 320V050 CAVOK 17/06 Q1023 NOSIG
Conditions at: GCTS (TENERIFE SUR/REI, ES) observed 2230 UTC 17 February 2019
Temperature: 17.0°C (63°F)
Dewpoint: 6.0°C (43°F) [RH = 48%]
Pressure (altimeter): 30.21 inches Hg (1023.0 mb)
Winds: from the N (360 degrees) at 3 MPH (3 knots; 1.5 m/s)
Visibility: 6 or more miles (10+ km)
Ceiling: ceiling and visibility are OK
Clouds: unknown
Weather: no significant weather observed at this time

Forecast for: GCTS (TENERIFE SUR/REI, ES)
Text: TAF GCTS 172000Z 1721/1821 01006KT CAVOK TX22/1814Z TN13/1806Z
Forecast period: 2100 UTC 17 February 2019 to 1000 UTC 18 February 2019
Forecast type: FROM: standard forecast or significant change
Winds: from the N (10 degrees) at 7 MPH (6 knots; 3.1 m/s)
Visibility: 6 or more miles 10+ km)
Ceiling: unknown
Clouds: missing
Weather: no significant weather forecast for this period
Text: PROB30
Forecast period: 0500 to 0900 UTC 18 February 2019
Forecast type: TEMPORARY: The following changes expected for less than half the time period
Winds: from the WNW (300 degrees) at 12 MPH (10 knots; 5.1 m/s)
Visibility: missing
Ceiling: unknown
Clouds: missing
Weather: no significant weather forecast for this period
Text: TEMPO 1805/1809 30010KT
Forecast period: 1000 to 2100 UTC 18 February 2019
Forecast type: BECOMING: Conditions expected to become as follows by 1200 UTC 18 February 2019
Winds: from the E (100 degrees) at 24 MPH (21 knots; 10.8 m/s)
Visibility: 6 or more miles 10+ km)
Ceiling: unknown
Clouds: missing
Weather: no significant weather forecast for this period


 MAPA DO AEROPORTO


 INFORMAÇÕES DA PISTA

Pista 08 Tamanho da pista 10499 ft Largura da pista 148 ft
Elevação da pista 187 ft Ranhura da pista 0 ft Proa da pista 69
Pista 26 Tamanho da pista 10499 ft Largura da pista 148 ft
Elevação da pista 209 ft Ranhura da pista 0 ft Proa da pista 249

 FREQUÊNCIAS DO AEROPORTO

Tipo APP Nome APP Frequência 120.3 MHZ
Tipo ATIS Nome ATIS Frequência 118.675 MHZ
Tipo GND Nome GND Frequência 121.9 MHZ
Tipo TWR Nome TWR Frequência 119 MHZ

 AUXÍLIOS DE NAVEGAÇÃO PRÓXIMOS AO AEROPORTO

Tipo NDB Nome Tenerife Sur Frequência 317 KHZ
Tipo VOR-DME Nome Tenerife Sur Frequência 116400 KHZ